sensor_id;sensor_type;location;lat;lon;timestamp;P1;durP1;ratioP1;P2;durP2;ratioP2
66421;SDS011;53228;51.380;0.098;2022-10-16T00:01:53;17.65;;;3.17;;
66421;SDS011;53228;51.380;0.098;2022-10-16T00:04:21;16.05;;;2.20;;
66421;SDS011;53228;51.380;0.098;2022-10-16T00:06:49;15.85;;;2.20;;
66421;SDS011;53228;51.380;0.098;2022-10-16T00:09:19;28.70;;;2.78;;
66421;SDS011;53228;51.380;0.098;2022-10-16T00:11:47;9.27;;;1.70;;
66421;SDS011;53228;51.380;0.098;2022-10-16T00:14:15;19.58;;;2.83;;
66421;SDS011;53228;51.380;0.098;2022-10-16T00:16:42;14.77;;;2.03;;
66421;SDS011;53228;51.380;0.098;2022-10-16T00:19:11;13.38;;;2.35;;
66421;SDS011;53228;51.380;0.098;2022-10-16T00:21:39;12.82;;;1.88;;
66421;SDS011;53228;51.380;0.098;2022-10-16T00:24:25;12.30;;;1.60;;
66421;SDS011;53228;51.380;0.098;2022-10-16T00:26:53;14.57;;;1.70;;
66421;SDS011;53228;51.380;0.098;2022-10-16T00:29:20;11.77;;;2.95;;
66421;SDS011;53228;51.380;0.098;2022-10-16T00:31:48;13.88;;;2.50;;
66421;SDS011;53228;51.380;0.098;2022-10-16T00:34:15;12.45;;;1.40;;
66421;SDS011;53228;51.380;0.098;2022-10-16T00:36:46;12.93;;;2.00;;
66421;SDS011;53228;51.380;0.098;2022-10-16T00:39:13;13.30;;;1.60;;
66421;SDS011;53228;51.380;0.098;2022-10-16T00:41:41;10.65;;;1.48;;
66421;SDS011;53228;51.380;0.098;2022-10-16T00:50:11;8.85;;;1.45;;
66421;SDS011;53228;51.380;0.098;2022-10-16T00:52:46;9.45;;;1.50;;
66421;SDS011;53228;51.380;0.098;2022-10-16T00:55:15;8.80;;;1.67;;
66421;SDS011;53228;51.380;0.098;2022-10-16T00:57:43;10.93;;;1.70;;
66421;SDS011;53228;51.380;0.098;2022-10-16T01:00:13;8.40;;;1.20;;
66421;SDS011;53228;51.380;0.098;2022-10-16T01:02:44;7.97;;;1.20;;
66421;SDS011;53228;51.380;0.098;2022-10-16T01:05:11;8.50;;;1.20;;
66421;SDS011;53228;51.380;0.098;2022-10-16T01:07:49;9.95;;;1.60;;
66421;SDS011;53228;51.380;0.098;2022-10-16T01:10:44;8.73;;;1.95;;
66421;SDS011;53228;51.380;0.098;2022-10-16T01:13:27;7.13;;;1.42;;
66421;SDS011;53228;51.380;0.098;2022-10-16T01:16:07;9.88;;;1.80;;
66421;SDS011;53228;51.380;0.098;2022-10-16T01:18:43;9.88;;;1.75;;
66421;SDS011;53228;51.380;0.098;2022-10-16T01:21:24;10.50;;;2.40;;
66421;SDS011;53228;51.380;0.098;2022-10-16T01:29:16;9.52;;;1.42;;
66421;SDS011;53228;51.380;0.098;2022-10-16T01:31:52;10.27;;;1.73;;
66421;SDS011;53228;51.380;0.098;2022-10-16T01:34:33;16.63;;;1.55;;
66421;SDS011;53228;51.380;0.098;2022-10-16T01:37:06;16.02;;;3.03;;
66421;SDS011;53228;51.380;0.098;2022-10-16T01:39:39;11.70;;;1.67;;
66421;SDS011;53228;51.380;0.098;2022-10-16T01:44:45;14.68;;;1.90;;
66421;SDS011;53228;51.380;0.098;2022-10-16T01:47:15;11.30;;;1.77;;
66421;SDS011;53228;51.380;0.098;2022-10-16T01:49:45;10.85;;;2.20;;
66421;SDS011;53228;51.380;0.098;2022-10-16T01:52:15;12.07;;;1.70;;
66421;SDS011;53228;51.380;0.098;2022-10-16T01:54:47;12.30;;;2.25;;
66421;SDS011;53228;51.380;0.098;2022-10-16T01:57:15;15.88;;;2.00;;
66421;SDS011;53228;51.380;0.098;2022-10-16T01:59:48;11.73;;;2.05;;
66421;SDS011;53228;51.380;0.098;2022-10-16T02:02:20;17.33;;;2.95;;
66421;SDS011;53228;51.380;0.098;2022-10-16T02:07:24;18.83;;;2.35;;
66421;SDS011;53228;51.380;0.098;2022-10-16T02:09:52;19.40;;;2.45;;
66421;SDS011;53228;51.380;0.098;2022-10-16T02:12:25;18.15;;;1.80;;
66421;SDS011;53228;51.380;0.098;2022-10-16T02:14:56;15.70;;;2.83;;
66421;SDS011;53228;51.380;0.098;2022-10-16T02:17:25;12.13;;;2.20;;
66421;SDS011;53228;51.380;0.098;2022-10-16T02:19:53;16.33;;;2.25;;
66421;SDS011;53228;51.380;0.098;2022-10-16T02:22:33;12.18;;;1.98;;
66421;SDS011;53228;51.380;0.098;2022-10-16T02:25:09;17.13;;;1.98;;
66421;SDS011;53228;51.380;0.098;2022-10-16T02:32:57;11.13;;;1.50;;
66421;SDS011;53228;51.380;0.098;2022-10-16T02:37:56;6.75;;;1.15;;
66421;SDS011;53228;51.380;0.098;2022-10-16T02:40:25;10.88;;;1.40;;
66421;SDS011;53228;51.380;0.098;2022-10-16T02:42:53;10.30;;;1.42;;
66421;SDS011;53228;51.380;0.098;2022-10-16T02:45:24;11.30;;;1.52;;
66421;SDS011;53228;51.380;0.098;2022-10-16T02:47:52;7.22;;;1.30;;
66421;SDS011;53228;51.380;0.098;2022-10-16T02:50:19;6.10;;;1.30;;
66421;SDS011;53228;51.380;0.098;2022-10-16T02:52:47;8.27;;;1.48;;
66421;SDS011;53228;51.380;0.098;2022-10-16T02:55:14;12.23;;;1.58;;
66421;SDS011;53228;51.380;0.098;2022-10-16T02:57:42;9.00;;;1.30;;
66421;SDS011;53228;51.380;0.098;2022-10-16T03:00:11;16.38;;;1.98;;
66421;SDS011;53228;51.380;0.098;2022-10-16T03:02:40;13.50;;;1.63;;
66421;SDS011;53228;51.380;0.098;2022-10-16T03:05:08;14.77;;;1.92;;
66421;SDS011;53228;51.380;0.098;2022-10-16T03:07:36;8.10;;;1.75;;
66421;SDS011;53228;51.380;0.098;2022-10-16T03:10:03;10.98;;;1.92;;
66421;SDS011;53228;51.380;0.098;2022-10-16T03:12:31;16.98;;;2.50;;
66421;SDS011;53228;51.380;0.098;2022-10-16T03:14:59;4.97;;;1.38;;
66421;SDS011;53228;51.380;0.098;2022-10-16T03:17:27;15.30;;;1.70;;
66421;SDS011;53228;51.380;0.098;2022-10-16T03:19:55;14.30;;;1.90;;
66421;SDS011;53228;51.380;0.098;2022-10-16T03:22:22;9.35;;;1.40;;
66421;SDS011;53228;51.380;0.098;2022-10-16T03:24:50;13.98;;;1.50;;
66421;SDS011;53228;51.380;0.098;2022-10-16T03:27:18;11.45;;;1.33;;
66421;SDS011;53228;51.380;0.098;2022-10-16T03:29:45;6.75;;;1.20;;
66421;SDS011;53228;51.380;0.098;2022-10-16T03:32:13;12.60;;;1.50;;
66421;SDS011;53228;51.380;0.098;2022-10-16T03:34:40;10.18;;;1.65;;
66421;SDS011;53228;51.380;0.098;2022-10-16T03:37:08;15.23;;;2.33;;
66421;SDS011;53228;51.380;0.098;2022-10-16T03:39:36;8.70;;;1.15;;
66421;SDS011;53228;51.380;0.098;2022-10-16T03:42:04;7.22;;;1.30;;
66421;SDS011;53228;51.380;0.098;2022-10-16T03:44:32;10.25;;;1.40;;
66421;SDS011;53228;51.380;0.098;2022-10-16T03:46:59;9.10;;;1.33;;
66421;SDS011;53228;51.380;0.098;2022-10-16T03:49:27;6.32;;;1.08;;
66421;SDS011;53228;51.380;0.098;2022-10-16T03:51:54;10.00;;;1.45;;
66421;SDS011;53228;51.380;0.098;2022-10-16T03:54:22;7.68;;;1.33;;
66421;SDS011;53228;51.380;0.098;2022-10-16T03:56:49;12.18;;;2.30;;
66421;SDS011;53228;51.380;0.098;2022-10-16T03:59:17;12.82;;;1.60;;
66421;SDS011;53228;51.380;0.098;2022-10-16T04:01:45;15.70;;;1.63;;
66421;SDS011;53228;51.380;0.098;2022-10-16T04:04:12;10.98;;;1.88;;
66421;SDS011;53228;51.380;0.098;2022-10-16T04:06:40;10.75;;;1.67;;
66421;SDS011;53228;51.380;0.098;2022-10-16T04:09:07;13.05;;;1.77;;
66421;SDS011;53228;51.380;0.098;2022-10-16T04:11:35;10.40;;;1.35;;
66421;SDS011;53228;51.380;0.098;2022-10-16T04:14:03;10.60;;;1.20;;
66421;SDS011;53228;51.380;0.098;2022-10-16T04:16:30;13.32;;;1.55;;
66421;SDS011;53228;51.380;0.098;2022-10-16T04:18:58;10.65;;;1.40;;
66421;SDS011;53228;51.380;0.098;2022-10-16T04:21:25;11.40;;;1.42;;
66421;SDS011;53228;51.380;0.098;2022-10-16T04:23:53;11.57;;;1.73;;
66421;SDS011;53228;51.380;0.098;2022-10-16T04:26:20;17.48;;;1.98;;
66421;SDS011;53228;51.380;0.098;2022-10-16T04:28:48;9.68;;;1.42;;
66421;SDS011;53228;51.380;0.098;2022-10-16T04:31:16;13.82;;;1.60;;
66421;SDS011;53228;51.380;0.098;2022-10-16T04:33:43;11.38;;;1.50;;
66421;SDS011;53228;51.380;0.098;2022-10-16T04:36:11;11.80;;;1.63;;
66421;SDS011;53228;51.380;0.098;2022-10-16T04:38:39;11.52;;;1.52;;
66421;SDS011;53228;51.380;0.098;2022-10-16T04:41:06;13.95;;;1.20;;
66421;SDS011;53228;51.380;0.098;2022-10-16T04:43:34;10.13;;;1.35;;
66421;SDS011;53228;51.380;0.098;2022-10-16T04:46:02;12.32;;;1.27;;
66421;SDS011;53228;51.380;0.098;2022-10-16T04:48:31;13.20;;;1.67;;
66421;SDS011;53228;51.380;0.098;2022-10-16T04:50:59;11.13;;;1.20;;
66421;SDS011;53228;51.380;0.098;2022-10-16T04:53:27;9.65;;;1.70;;
66421;SDS011;53228;51.380;0.098;2022-10-16T04:55:54;18.48;;;2.35;;
66421;SDS011;53228;51.380;0.098;2022-10-16T04:58:22;14.25;;;1.60;;
66421;SDS011;53228;51.380;0.098;2022-10-16T05:00:50;8.32;;;1.05;;
66421;SDS011;53228;51.380;0.098;2022-10-16T05:03:18;9.70;;;1.50;;
66421;SDS011;53228;51.380;0.098;2022-10-16T05:05:46;9.70;;;1.30;;
66421;SDS011;53228;51.380;0.098;2022-10-16T05:08:14;9.70;;;1.80;;
66421;SDS011;53228;51.380;0.098;2022-10-16T05:10:43;9.73;;;1.20;;
66421;SDS011;53228;51.380;0.098;2022-10-16T05:13:11;8.98;;;1.33;;
66421;SDS011;53228;51.380;0.098;2022-10-16T05:15:39;11.60;;;1.90;;
66421;SDS011;53228;51.380;0.098;2022-10-16T05:18:08;12.32;;;1.83;;
66421;SDS011;53228;51.380;0.098;2022-10-16T05:20:36;13.38;;;1.98;;
66421;SDS011;53228;51.380;0.098;2022-10-16T05:23:03;13.07;;;1.33;;
66421;SDS011;53228;51.380;0.098;2022-10-16T05:25:31;14.90;;;1.65;;
66421;SDS011;53228;51.380;0.098;2022-10-16T05:27:59;5.38;;;1.15;;
66421;SDS011;53228;51.380;0.098;2022-10-16T05:30:27;11.85;;;1.45;;
66421;SDS011;53228;51.380;0.098;2022-10-16T05:32:54;12.07;;;2.63;;
66421;SDS011;53228;51.380;0.098;2022-10-16T05:35:22;17.02;;;1.98;;
66421;SDS011;53228;51.380;0.098;2022-10-16T05:37:49;14.60;;;1.63;;
66421;SDS011;53228;51.380;0.098;2022-10-16T05:40:17;13.07;;;1.40;;
66421;SDS011;53228;51.380;0.098;2022-10-16T05:42:44;9.73;;;1.45;;
66421;SDS011;53228;51.380;0.098;2022-10-16T05:45:12;12.82;;;1.65;;
66421;SDS011;53228;51.380;0.098;2022-10-16T05:47:39;9.30;;;1.38;;
66421;SDS011;53228;51.380;0.098;2022-10-16T05:50:08;7.70;;;2.13;;
66421;SDS011;53228;51.380;0.098;2022-10-16T05:52:35;13.00;;;1.65;;
66421;SDS011;53228;51.380;0.098;2022-10-16T05:55:03;10.10;;;2.58;;
66421;SDS011;53228;51.380;0.098;2022-10-16T05:57:31;13.15;;;1.83;;
66421;SDS011;53228;51.380;0.098;2022-10-16T05:59:59;16.65;;;2.33;;
66421;SDS011;53228;51.380;0.098;2022-10-16T06:02:26;15.00;;;3.38;;
66421;SDS011;53228;51.380;0.098;2022-10-16T06:04:54;9.75;;;1.70;;
66421;SDS011;53228;51.380;0.098;2022-10-16T06:07:22;8.05;;;1.85;;
66421;SDS011;53228;51.380;0.098;2022-10-16T06:09:50;7.95;;;1.50;;
66421;SDS011;53228;51.380;0.098;2022-10-16T06:12:19;13.55;;;2.30;;
66421;SDS011;53228;51.380;0.098;2022-10-16T06:14:47;12.82;;;1.17;;
66421;SDS011;53228;51.380;0.098;2022-10-16T06:17:15;17.75;;;1.90;;
66421;SDS011;53228;51.380;0.098;2022-10-16T06:19:43;11.23;;;1.70;;
66421;SDS011;53228;51.380;0.098;2022-10-16T06:22:10;13.80;;;1.95;;
66421;SDS011;53228;51.380;0.098;2022-10-16T06:24:38;12.75;;;1.23;;
66421;SDS011;53228;51.380;0.098;2022-10-16T06:27:05;11.43;;;1.77;;
66421;SDS011;53228;51.380;0.098;2022-10-16T06:29:33;6.60;;;1.27;;
66421;SDS011;53228;51.380;0.098;2022-10-16T06:32:01;17.77;;;2.50;;
66421;SDS011;53228;51.380;0.098;2022-10-16T06:34:28;14.15;;;1.63;;
66421;SDS011;53228;51.380;0.098;2022-10-16T06:36:56;12.48;;;1.58;;
66421;SDS011;53228;51.380;0.098;2022-10-16T06:39:23;8.88;;;1.23;;
66421;SDS011;53228;51.380;0.098;2022-10-16T06:41:51;8.63;;;1.50;;
66421;SDS011;53228;51.380;0.098;2022-10-16T06:44:19;6.20;;;1.10;;
66421;SDS011;53228;51.380;0.098;2022-10-16T06:46:47;8.98;;;1.83;;
66421;SDS011;53228;51.380;0.098;2022-10-16T06:49:15;12.80;;;1.65;;
66421;SDS011;53228;51.380;0.098;2022-10-16T06:51:48;11.93;;;1.75;;
66421;SDS011;53228;51.380;0.098;2022-10-16T06:54:16;11.35;;;1.75;;
66421;SDS011;53228;51.380;0.098;2022-10-16T06:56:44;11.32;;;2.33;;
66421;SDS011;53228;51.380;0.098;2022-10-16T06:59:12;11.35;;;1.48;;
66421;SDS011;53228;51.380;0.098;2022-10-16T07:01:39;18.77;;;1.45;;
66421;SDS011;53228;51.380;0.098;2022-10-16T07:04:07;13.18;;;1.73;;
66421;SDS011;53228;51.380;0.098;2022-10-16T07:06:35;11.85;;;1.50;;
66421;SDS011;53228;51.380;0.098;2022-10-16T07:09:03;8.82;;;1.27;;
66421;SDS011;53228;51.380;0.098;2022-10-16T07:11:32;4.57;;;1.35;;
66421;SDS011;53228;51.380;0.098;2022-10-16T07:14:01;11.80;;;1.60;;
66421;SDS011;53228;51.380;0.098;2022-10-16T07:16:30;7.38;;;1.48;;
66421;SDS011;53228;51.380;0.098;2022-10-16T07:18:59;12.77;;;3.40;;
66421;SDS011;53228;51.380;0.098;2022-10-16T07:21:32;17.98;;;1.77;;
66421;SDS011;53228;51.380;0.098;2022-10-16T07:24:05;17.48;;;2.28;;
66421;SDS011;53228;51.380;0.098;2022-10-16T07:26:35;11.82;;;2.13;;
66421;SDS011;53228;51.380;0.098;2022-10-16T07:29:03;14.18;;;1.60;;
66421;SDS011;53228;51.380;0.098;2022-10-16T07:31:31;15.25;;;1.33;;
66421;SDS011;53228;51.380;0.098;2022-10-16T07:33:59;11.50;;;1.30;;
66421;SDS011;53228;51.380;0.098;2022-10-16T07:36:27;10.80;;;3.15;;
66421;SDS011;53228;51.380;0.098;2022-10-16T07:38:55;17.73;;;1.73;;
66421;SDS011;53228;51.380;0.098;2022-10-16T07:41:26;11.05;;;1.92;;
66421;SDS011;53228;51.380;0.098;2022-10-16T07:43:55;9.98;;;1.27;;
66421;SDS011;53228;51.380;0.098;2022-10-16T07:46:27;14.27;;;2.50;;
66421;SDS011;53228;51.380;0.098;2022-10-16T07:48:55;12.98;;;1.90;;
66421;SDS011;53228;51.380;0.098;2022-10-16T07:51:23;9.52;;;1.60;;
66421;SDS011;53228;51.380;0.098;2022-10-16T07:53:52;17.52;;;2.45;;
66421;SDS011;53228;51.380;0.098;2022-10-16T07:56:20;6.45;;;1.00;;
66421;SDS011;53228;51.380;0.098;2022-10-16T07:58:49;22.40;;;1.92;;
66421;SDS011;53228;51.380;0.098;2022-10-16T08:01:18;14.38;;;1.50;;
66421;SDS011;53228;51.380;0.098;2022-10-16T08:03:47;9.73;;;1.45;;
66421;SDS011;53228;51.380;0.098;2022-10-16T08:08:51;6.63;;;1.60;;
66421;SDS011;53228;51.380;0.098;2022-10-16T08:11:18;5.93;;;1.35;;
66421;SDS011;53228;51.380;0.098;2022-10-16T08:13:46;13.10;;;1.90;;
66421;SDS011;53228;51.380;0.098;2022-10-16T08:16:13;7.70;;;2.10;;
66421;SDS011;53228;51.380;0.098;2022-10-16T08:18:41;9.13;;;1.30;;
66421;SDS011;53228;51.380;0.098;2022-10-16T08:21:13;7.32;;;1.33;;
66421;SDS011;53228;51.380;0.098;2022-10-16T08:23:47;13.43;;;3.03;;
66421;SDS011;53228;51.380;0.098;2022-10-16T08:26:23;14.13;;;1.70;;
66421;SDS011;53228;51.380;0.098;2022-10-16T08:28:50;12.70;;;1.58;;
66421;SDS011;53228;51.380;0.098;2022-10-16T08:31:19;8.68;;;1.30;;
66421;SDS011;53228;51.380;0.098;2022-10-16T08:33:47;8.27;;;1.25;;
66421;SDS011;53228;51.380;0.098;2022-10-16T08:36:15;11.52;;;1.83;;
66421;SDS011;53228;51.380;0.098;2022-10-16T08:38:43;4.55;;;1.20;;
66421;SDS011;53228;51.380;0.098;2022-10-16T08:41:22;12.10;;;1.70;;
66421;SDS011;53228;51.380;0.098;2022-10-16T08:47:01;7.28;;;1.45;;
66421;SDS011;53228;51.380;0.098;2022-10-16T08:49:56;10.18;;;1.30;;
66421;SDS011;53228;51.380;0.098;2022-10-16T08:52:39;5.43;;;1.13;;
66421;SDS011;53228;51.380;0.098;2022-10-16T08:55:28;10.35;;;1.27;;
66421;SDS011;53228;51.380;0.098;2022-10-16T08:58:13;8.57;;;1.55;;
66421;SDS011;53228;51.380;0.098;2022-10-16T09:01:04;13.27;;;2.05;;
66421;SDS011;53228;51.380;0.098;2022-10-16T09:06:45;19.00;;;1.50;;
66421;SDS011;53228;51.380;0.098;2022-10-16T09:12:32;7.40;;;1.20;;
66421;SDS011;53228;51.380;0.098;2022-10-16T09:17:52;8.00;;;1.08;;
66421;SDS011;53228;51.380;0.098;2022-10-16T09:20:45;9.27;;;1.65;;
66421;SDS011;53228;51.380;0.098;2022-10-16T09:23:40;7.22;;;1.40;;
66421;SDS011;53228;51.380;0.098;2022-10-16T09:26:12;8.40;;;1.23;;
66421;SDS011;53228;51.380;0.098;2022-10-16T09:28:42;9.73;;;1.38;;
66421;SDS011;53228;51.380;0.098;2022-10-16T09:31:18;9.00;;;1.38;;
66421;SDS011;53228;51.380;0.098;2022-10-16T09:33:49;8.32;;;1.40;;
66421;SDS011;53228;51.380;0.098;2022-10-16T09:36:25;10.63;;;1.63;;
66421;SDS011;53228;51.380;0.098;2022-10-16T09:39:04;10.10;;;1.27;;
66421;SDS011;53228;51.380;0.098;2022-10-16T09:41:37;8.13;;;1.35;;
66421;SDS011;53228;51.380;0.098;2022-10-16T09:44:18;6.32;;;1.73;;
66421;SDS011;53228;51.380;0.098;2022-10-16T09:46:46;9.05;;;1.25;;
66421;SDS011;53228;51.380;0.098;2022-10-16T09:52:02;9.00;;;1.20;;
66421;SDS011;53228;51.380;0.098;2022-10-16T09:54:50;11.48;;;1.50;;
66421;SDS011;53228;51.380;0.098;2022-10-16T09:57:23;7.20;;;1.20;;
66421;SDS011;53228;51.380;0.098;2022-10-16T09:59:53;6.53;;;1.13;;
66421;SDS011;53228;51.380;0.098;2022-10-16T10:02:29;10.90;;;1.50;;
66421;SDS011;53228;51.380;0.098;2022-10-16T10:05:14;7.63;;;1.50;;
66421;SDS011;53228;51.380;0.098;2022-10-16T10:07:53;12.52;;;1.70;;
66421;SDS011;53228;51.380;0.098;2022-10-16T10:10:29;10.57;;;1.42;;
66421;SDS011;53228;51.380;0.098;2022-10-16T10:12:58;16.58;;;1.65;;
66421;SDS011;53228;51.380;0.098;2022-10-16T10:15:27;9.02;;;1.55;;
66421;SDS011;53228;51.380;0.098;2022-10-16T10:18:22;7.53;;;1.05;;
66421;SDS011;53228;51.380;0.098;2022-10-16T10:20:57;3.53;;;1.00;;
66421;SDS011;53228;51.380;0.098;2022-10-16T10:23:28;5.88;;;1.23;;
66421;SDS011;53228;51.380;0.098;2022-10-16T10:43:29;4.15;;;0.90;;
66421;SDS011;53228;51.380;0.098;2022-10-16T10:46:29;9.40;;;1.50;;
66421;SDS011;53228;51.380;0.098;2022-10-16T10:54:53;5.93;;;1.23;;
66421;SDS011;53228;51.380;0.098;2022-10-16T11:00:23;7.95;;;1.10;;
66421;SDS011;53228;51.380;0.098;2022-10-16T11:06:02;6.03;;;1.05;;
66421;SDS011;53228;51.380;0.098;2022-10-16T11:08:41;8.25;;;1.10;;
66421;SDS011;53228;51.380;0.098;2022-10-16T11:14:03;8.02;;;1.45;;
66421;SDS011;53228;51.380;0.098;2022-10-16T11:16:55;4.88;;;1.27;;
66421;SDS011;53228;51.380;0.098;2022-10-16T11:25:11;5.50;;;1.20;;
66421;SDS011;53228;51.380;0.098;2022-10-16T11:30:40;8.88;;;1.75;;
66421;SDS011;53228;51.380;0.098;2022-10-16T11:38:10;7.60;;;1.60;;
66421;SDS011;53228;51.380;0.098;2022-10-16T11:40:42;9.80;;;1.55;;
66421;SDS011;53228;51.380;0.098;2022-10-16T11:43:16;6.28;;;1.10;;
66421;SDS011;53228;51.380;0.098;2022-10-16T11:46:15;5.15;;;1.33;;
66421;SDS011;53228;51.380;0.098;2022-10-16T11:49:32;10.07;;;1.52;;
66421;SDS011;53228;51.380;0.098;2022-10-16T11:51:43;7.45;;;1.45;;
66421;SDS011;53228;51.380;0.098;2022-10-16T11:56:57;11.57;;;2.40;;
66421;SDS011;53228;51.380;0.098;2022-10-16T11:59:30;10.70;;;3.08;;
66421;SDS011;53228;51.380;0.098;2022-10-16T12:05:03;15.38;;;3.60;;
66421;SDS011;53228;51.380;0.098;2022-10-16T12:07:41;7.93;;;1.50;;
66421;SDS011;53228;51.380;0.098;2022-10-16T12:10:27;10.85;;;2.10;;
66421;SDS011;53228;51.380;0.098;2022-10-16T12:12:59;15.35;;;2.97;;
66421;SDS011;53228;51.380;0.098;2022-10-16T12:15:28;11.27;;;2.25;;
66421;SDS011;53228;51.380;0.098;2022-10-16T12:18:20;12.35;;;2.17;;
66421;SDS011;53228;51.380;0.098;2022-10-16T12:20:56;10.63;;;2.40;;
66421;SDS011;53228;51.380;0.098;2022-10-16T12:23:33;14.45;;;2.42;;
66421;SDS011;53228;51.380;0.098;2022-10-16T12:26:04;11.43;;;1.73;;
66421;SDS011;53228;51.380;0.098;2022-10-16T12:28:32;9.55;;;1.90;;
66421;SDS011;53228;51.380;0.098;2022-10-16T12:31:02;13.30;;;2.97;;
66421;SDS011;53228;51.380;0.098;2022-10-16T12:33:33;11.13;;;1.98;;
66421;SDS011;53228;51.380;0.098;2022-10-16T12:36:03;9.93;;;1.63;;
66421;SDS011;53228;51.380;0.098;2022-10-16T12:38:53;17.30;;;3.22;;
66421;SDS011;53228;51.380;0.098;2022-10-16T12:41:28;9.68;;;2.08;;
66421;SDS011;53228;51.380;0.098;2022-10-16T12:44:00;8.52;;;2.00;;
66421;SDS011;53228;51.380;0.098;2022-10-16T12:49:06;15.35;;;2.83;;
66421;SDS011;53228;51.380;0.098;2022-10-16T12:51:41;14.68;;;2.05;;
66421;SDS011;53228;51.380;0.098;2022-10-16T12:54:16;15.38;;;2.80;;
66421;SDS011;53228;51.380;0.098;2022-10-16T12:59:43;13.95;;;2.10;;
66421;SDS011;53228;51.380;0.098;2022-10-16T13:13:30;11.02;;;1.88;;
66421;SDS011;53228;51.380;0.098;2022-10-16T13:18:50;10.77;;;1.80;;
66421;SDS011;53228;51.380;0.098;2022-10-16T13:27:17;12.00;;;2.22;;
66421;SDS011;53228;51.380;0.098;2022-10-16T13:29:53;13.05;;;1.70;;
66421;SDS011;53228;51.380;0.098;2022-10-16T13:32:29;9.75;;;2.47;;
66421;SDS011;53228;51.380;0.098;2022-10-16T13:34:57;11.77;;;2.63;;
66421;SDS011;53228;51.380;0.098;2022-10-16T13:37:27;11.18;;;1.83;;
66421;SDS011;53228;51.380;0.098;2022-10-16T13:40:04;12.70;;;2.08;;
66421;SDS011;53228;51.380;0.098;2022-10-16T13:42:49;12.57;;;2.28;;
66421;SDS011;53228;51.380;0.098;2022-10-16T13:47:48;15.48;;;2.33;;
66421;SDS011;53228;51.380;0.098;2022-10-16T13:50:17;18.08;;;2.70;;
66421;SDS011;53228;51.380;0.098;2022-10-16T13:52:45;8.68;;;1.95;;
66421;SDS011;53228;51.380;0.098;2022-10-16T13:55:14;10.68;;;2.80;;
66421;SDS011;53228;51.380;0.098;2022-10-16T13:57:44;12.68;;;2.33;;
66421;SDS011;53228;51.380;0.098;2022-10-16T14:00:19;12.30;;;1.77;;
66421;SDS011;53228;51.380;0.098;2022-10-16T14:02:50;13.73;;;1.98;;
66421;SDS011;53228;51.380;0.098;2022-10-16T14:05:22;15.23;;;3.08;;
66421;SDS011;53228;51.380;0.098;2022-10-16T14:07:50;9.90;;;2.40;;
66421;SDS011;53228;51.380;0.098;2022-10-16T14:10:29;10.23;;;1.77;;
66421;SDS011;53228;51.380;0.098;2022-10-16T14:13:03;6.43;;;1.55;;
66421;SDS011;53228;51.380;0.098;2022-10-16T14:15:35;17.15;;;2.47;;
66421;SDS011;53228;51.380;0.098;2022-10-16T14:18:04;15.70;;;2.63;;
66421;SDS011;53228;51.380;0.098;2022-10-16T14:20:33;13.45;;;1.90;;
66421;SDS011;53228;51.380;0.098;2022-10-16T14:25:31;9.60;;;1.75;;
66421;SDS011;53228;51.380;0.098;2022-10-16T14:31:00;13.52;;;2.33;;
66421;SDS011;53228;51.380;0.098;2022-10-16T14:38:30;14.27;;;3.38;;
66421;SDS011;53228;51.380;0.098;2022-10-16T14:40:59;16.10;;;4.25;;
66421;SDS011;53228;51.380;0.098;2022-10-16T14:43:32;15.88;;;2.92;;
66421;SDS011;53228;51.380;0.098;2022-10-16T14:46:06;12.88;;;2.42;;
66421;SDS011;53228;51.380;0.098;2022-10-16T14:48:54;13.40;;;1.50;;
66421;SDS011;53228;51.380;0.098;2022-10-16T14:54:07;11.63;;;2.72;;
66421;SDS011;53228;51.380;0.098;2022-10-16T14:56:42;10.07;;;1.88;;
66421;SDS011;53228;51.380;0.098;2022-10-16T15:01:51;12.13;;;2.20;;
66421;SDS011;53228;51.380;0.098;2022-10-16T15:04:19;11.13;;;1.98;;
66421;SDS011;53228;51.380;0.098;2022-10-16T15:06:46;15.02;;;1.95;;
66421;SDS011;53228;51.380;0.098;2022-10-16T15:09:14;14.05;;;2.72;;
66421;SDS011;53228;51.380;0.098;2022-10-16T15:11:42;11.00;;;2.50;;
66421;SDS011;53228;51.380;0.098;2022-10-16T15:14:13;14.93;;;2.35;;
66421;SDS011;53228;51.380;0.098;2022-10-16T15:16:40;11.85;;;2.53;;
66421;SDS011;53228;51.380;0.098;2022-10-16T15:19:09;19.70;;;3.33;;
66421;SDS011;53228;51.380;0.098;2022-10-16T15:21:36;19.77;;;2.63;;
66421;SDS011;53228;51.380;0.098;2022-10-16T15:24:05;18.95;;;4.50;;
66421;SDS011;53228;51.380;0.098;2022-10-16T15:26:43;15.27;;;2.15;;
66421;SDS011;53228;51.380;0.098;2022-10-16T15:29:18;18.67;;;2.28;;
66421;SDS011;53228;51.380;0.098;2022-10-16T15:31:45;9.02;;;2.28;;
66421;SDS011;53228;51.380;0.098;2022-10-16T15:34:14;10.15;;;2.13;;
66421;SDS011;53228;51.380;0.098;2022-10-16T15:36:41;9.43;;;1.98;;
66421;SDS011;53228;51.380;0.098;2022-10-16T15:39:17;8.93;;;2.45;;
66421;SDS011;53228;51.380;0.098;2022-10-16T15:41:48;16.65;;;2.03;;
66421;SDS011;53228;51.380;0.098;2022-10-16T15:44:20;12.68;;;2.97;;
66421;SDS011;53228;51.380;0.098;2022-10-16T15:46:56;10.90;;;2.85;;
66421;SDS011;53228;51.380;0.098;2022-10-16T15:49:25;17.33;;;2.88;;
66421;SDS011;53228;51.380;0.098;2022-10-16T15:51:53;8.70;;;2.40;;
66421;SDS011;53228;51.380;0.098;2022-10-16T15:54:21;5.93;;;2.38;;
66421;SDS011;53228;51.380;0.098;2022-10-16T15:56:49;20.63;;;6.50;;
66421;SDS011;53228;51.380;0.098;2022-10-16T15:59:20;11.48;;;2.67;;
66421;SDS011;53228;51.380;0.098;2022-10-16T16:01:47;8.23;;;2.30;;
66421;SDS011;53228;51.380;0.098;2022-10-16T16:04:15;15.35;;;3.28;;
66421;SDS011;53228;51.380;0.098;2022-10-16T16:07:03;12.15;;;2.42;;
66421;SDS011;53228;51.380;0.098;2022-10-16T16:09:34;14.90;;;2.30;;
66421;SDS011;53228;51.380;0.098;2022-10-16T16:12:01;12.40;;;2.28;;
66421;SDS011;53228;51.380;0.098;2022-10-16T16:14:29;13.52;;;2.90;;
66421;SDS011;53228;51.380;0.098;2022-10-16T16:16:57;24.25;;;3.40;;
66421;SDS011;53228;51.380;0.098;2022-10-16T16:19:24;6.80;;;1.80;;
66421;SDS011;53228;51.380;0.098;2022-10-16T16:21:52;10.90;;;2.17;;
66421;SDS011;53228;51.380;0.098;2022-10-16T16:24:20;16.13;;;5.43;;
66421;SDS011;53228;51.380;0.098;2022-10-16T16:26:48;23.08;;;9.02;;
66421;SDS011;53228;51.380;0.098;2022-10-16T16:29:17;23.45;;;10.82;;
66421;SDS011;53228;51.380;0.098;2022-10-16T16:31:45;29.92;;;11.90;;
66421;SDS011;53228;51.380;0.098;2022-10-16T16:34:14;20.95;;;8.20;;
66421;SDS011;53228;51.380;0.098;2022-10-16T16:36:41;19.13;;;8.18;;
66421;SDS011;53228;51.380;0.098;2022-10-16T16:39:09;11.57;;;4.40;;
66421;SDS011;53228;51.380;0.098;2022-10-16T16:41:37;12.60;;;3.83;;
66421;SDS011;53228;51.380;0.098;2022-10-16T16:44:06;12.52;;;3.90;;
66421;SDS011;53228;51.380;0.098;2022-10-16T16:46:36;13.82;;;3.05;;
66421;SDS011;53228;51.380;0.098;2022-10-16T16:49:04;13.48;;;3.15;;
66421;SDS011;53228;51.380;0.098;2022-10-16T16:51:32;10.18;;;3.30;;
66421;SDS011;53228;51.380;0.098;2022-10-16T16:54:06;11.90;;;3.40;;
66421;SDS011;53228;51.380;0.098;2022-10-16T16:56:36;10.20;;;3.10;;
66421;SDS011;53228;51.380;0.098;2022-10-16T16:59:18;10.65;;;3.10;;
66421;SDS011;53228;51.380;0.098;2022-10-16T17:01:49;12.55;;;3.13;;
66421;SDS011;53228;51.380;0.098;2022-10-16T17:04:23;13.18;;;3.00;;
66421;SDS011;53228;51.380;0.098;2022-10-16T17:06:52;9.70;;;2.72;;
66421;SDS011;53228;51.380;0.098;2022-10-16T17:11:49;11.10;;;2.90;;
66421;SDS011;53228;51.380;0.098;2022-10-16T17:14:16;8.80;;;2.58;;
66421;SDS011;53228;51.380;0.098;2022-10-16T17:16:44;7.93;;;2.30;;
66421;SDS011;53228;51.380;0.098;2022-10-16T17:19:13;6.80;;;2.05;;
66421;SDS011;53228;51.380;0.098;2022-10-16T17:21:43;12.10;;;2.83;;